Plymouth, MA (02360)

6:11 AM EDT on October 31, 2014 (GMT -0400)
KMAROCKL1 | Change Station
CLOSE
Current Station
Personal Weather Station
Location: Plymouth, MA
Elevation: 110 ft
Nearby Weather Stations

Elev 110 ft 41.94 °N, 70.66 °W | Updated 11 minutes ago

Overcast
Overcast
48.5 °F
Feels Like 48 °F
N
0.0
Wind Variable Wind from SW
Gusts 2.0 mph

Today
High -- | Low -- °F
--% Chance of Precip.
Yesterday
High -- | Low -- °F
Precip. -- in
7:13 AM 5:38 PM
First Quarter, 53% visible
Pressure 30.01 in
Visibility 10.0 miles
Clouds Overcast 5500 ft
Windchill 48 °F
Dew Point 43 °F
Humidity 81%
Rainfall 0.00 in
Snow Depth Not available.
UV 0.0 out of 12
Pollen 1.10 out of 12
Air Quality Not available.
Flu Activity Not available.
METAR KPYM 310952Z AUTO 05006KT 10SM OVC055 09/05 A3001 RMK AO2 SLP162 T00940050

More Conditions Fewer Conditions

Pressure 30.01 in
Visibility 10.0 miles
Clouds Overcast 5500 ft
Windchill 48 °F
Dew Point 43 °F
Humidity 81%
Rainfall 0.00 in
Snow Depth Not available.
UV 0.0 out of 12
Pollen 1.10 out of 12
Air Quality Not available.
Flu Activity Not available.
METAR KPYM 310952Z AUTO 05006KT 10SM OVC055 09/05 A3001 RMK AO2 SLP162 T00940050

More Conditions Fewer Conditions

10-Day Weather Forecast

Almanac

Astronomy

Oct. 31, 2014 Rise Set
Actual Time
Civil Twilight
Nautical Twilight
Astronomical Twilight
Moon
Length of Visible Light
Length of Day
Tomorrow will be .
, % of the Moon is Illuminated

Today's Extremes

State Highs State Lows

Community

WunderPhotos

Upload Photos

1,766,580 photos uploaded!

WunderBlogs® & News

Nearby

Air Quality

  Air Quality AQ Index Pollutant
Not available.

Snow Depth

Station Depth Elevation

Earthquake Activity

City Distance Mag. Time & Date
Minimum magnitude displayed is 2.5.

Coastal Water Temperatures

Place Temperature

Nearby Weather Stations